Flight Track Log - Related Links

Times and Time Zones

All times are in EDT time to prevent confusion due to time zone crossing. See the RPA3284 flight status page for this flight to view local times or setup timezone preferences in your user account.

Time Position Orientation Groundspeed Altitude Reporting Facility
EDT Latitude Longitude Course Direction KTS MPH feet Rate Location/Type
Fri 04:25:51 PM 32.8789 -80.0061 315° West 225 259 2,800  Level Jacksonville Center
Fri 04:26:51 PM 32.9342 -79.9572 37° Northeast 270 311 5,200 2,700 Climbing Jacksonville Center
Fri 04:27:00 PM 33.9983 -79.7107 13° North  Level FlightAware Approximate
Fri 04:27:51 PM 33.0153 -79.9472 North 270 311 8,200  Level Jacksonville Center
Fri 04:28:00 PM 34.2585 -79.7084 311° West  Level FlightAware Approximate
Fri 04:28:51 PM 33.0986 -79.9419 North 282 325 10,500  Level Jacksonville Center
Fri 04:29:00 PM 34.4469 -79.9722 311° West  Level FlightAware Approximate
Fri 04:29:51 PM 33.1933 -79.9711 346° North 309 356 12,400  Level Jacksonville Center
Fri 04:30:00 PM 34.6307 -80.2409 312° West  Level FlightAware Approximate
Fri 04:30:51 PM 33.2858 -80.0053 343° North 328 377 15,300  Level Jacksonville Center
Fri 04:31:00 PM 34.8253 -80.4970 315° West  Level FlightAware Approximate
Fri 04:31:51 PM 33.3764 -80.0397 342° North 340 391 17,100  Level Jacksonville Center
Fri 04:32:51 PM 33.4797 -80.0911 337° Northwest 353 406 18,900 950 Climbing Jacksonville Center
Fri 04:33:51 PM 33.5647 -80.1583 327° Northwest 353 406 19,000 50 Climbing Jacksonville Center
Fri 04:34:51 PM 33.6475 -80.2231 327° Northwest 364 419 19,000  Level Jacksonville Center
Fri 04:35:51 PM 33.7242 -80.3031 319° Northwest 364 419 19,000  Level Jacksonville Center
Fri 04:36:51 PM 33.8008 -80.3783 321° Northwest 359 413 19,000  Level Jacksonville Center
Fri 04:37:51 PM 33.8878 -80.4458 327° Northwest 359 413 19,000 -350 Level Jacksonville Center
Fri 04:38:51 PM 33.9622 -80.5214 320° Northwest 359 413 18,300 -1,150 Descending Jacksonville Center
Fri 04:39:51 PM 34.0550 -80.5689 337° Northwest 359 413 16,700 -1,850 Descending Jacksonville Center
Fri 04:40:51 PM 34.1494 -80.5942 348° North 344 396 14,600 -2,150 Descending Jacksonville Center
Fri 04:41:51 PM 34.2394 -80.6119 351° North 338 389 12,400 -1,850 Descending Jacksonville Center
Fri 04:42:51 PM 34.3272 -80.6322 349° North 331 381 10,900 -750 Descending Jacksonville Center
Fri 04:43:51 PM 34.4153 -80.6525 349° North 324 373 10,900 33 Level Jacksonville Center
Fri 04:45:51 PM 34.5814 -80.6958 348° North 317 365 11,000 30 Climbing Atlanta Center
Fri 04:47:11 PM 34.7011 -80.7239 349° North 320 368 11,000 -341 Level Atlanta Center
Fri 04:47:54 PM 34.7600 -80.7369 350° North 312 359 10,300 -1,107 Descending Atlanta Center
Fri 04:48:54 PM 34.8433 -80.7283 North 302 348 9,100 -614 Descending Atlanta Center
Fri 04:50:01 PM 34.9364 -80.7019 13° North 297 342 9,000 -43 Descending Atlanta Center
Fri 04:51:14 PM 35.0208 -80.7342 343° North 301 346 9,000  Level Atlanta Center
Fri 04:52:15 PM 35.0811 -80.8103 314° West 297 342 9,000  Level Atlanta Center
Fri 04:53:16 PM 35.1628 -80.8225 353° North 288 331 9,000 -175 Level Atlanta Center
Fri 04:53:58 PM 35.2081 -80.8003 22° Northeast 255 293 8,700 -1,252 Descending Atlanta Center
Fri 04:55:11 PM 35.2647 -80.7269 47° Northeast 241 277 6,600 -1,612 Descending Atlanta Center
Fri 04:56:12 PM 35.3183 -80.7044 19° North 244 281 5,100 -1,138 Descending Atlanta Center
Fri 04:57:07 PM 35.3428 -80.7594 299° West 197 227 4,400 -931 Descending Atlanta Center
Fri 04:58:08 PM 35.3086 -80.8117 231° Southwest 177 204 3,300 -1,082 Descending Atlanta Center

Login

Don't have an account? Register now (free) for customized features, flight alerts, and more!